Latest Weather Observations for Bunbury

IDW60801

Issued at 6:32 pm WST Monday 27 April 2015 (issued every 30 minutes, with the page automatically refreshed every 10 minutes)

About weather observations | Map of weather stations | Latest weather observations for WA | Other Formats
Station Details ID: 009965 Name: BUNBURY Lat: -33.36 Lon: 115.64 Height: 5.2 m
Data from the previous 72 hours. | See also: Recent months at Bunbury
Date/Time
WST
Temp
°C
App
Temp
°C
Dew
Point
Rel
Hum
%
Delta-T
°C
Wind Press
QNH
hPa
Press
MSL
hPa
Rain
since 9 am
mm
Dir
 
Spd
km/h
Gust
km/h
Spd
kts
Gust
kts
27/06:30pm 16.8 14.9 6.6 51 5.0 ESE 6 6 3 3 1023.7 1023.6 0.0
27/06:00pm 19.9 17.7 5.5 39 7.1 E 6 7 3 4 1023.6 1023.5 0.0
27/05:30pm 21.1 18.9 5.5 36 7.7 NE 6 7 3 4 1023.7 1023.6 0.0
27/05:00pm 23.0 20.6 5.4 32 8.8 NE 7 13 4 7 1023.5 1023.4 0.0
27/04:30pm 23.5 20.9 5.9 32 8.9 ENE 9 17 5 9 1023.3 1023.2 0.0
27/04:00pm 23.9 20.9 5.8 31 9.2 NE 11 20 6 11 1023.4 1023.3 0.0
27/03:30pm 24.0 20.5 5.4 30 9.4 NE 13 20 7 11 1023.3 1023.2 0.0
27/03:00pm 23.7 20.6 5.6 31 9.1 ENE 11 19 6 10 1023.3 1023.2 0.0
27/02:30pm 24.1 21.1 5.9 31 9.3 ENE 11 19 6 10 1023.4 1023.3 0.0
27/02:00pm 23.9 20.3 6.7 33 8.8 ENE 15 22 8 12 1023.5 1023.4 0.0
27/01:30pm 23.7 19.7 6.5 33 8.8 NE 17 22 9 12 1023.6 1023.5 0.0
27/01:00pm 23.7 20.2 7.3 35 8.5 NE 15 26 8 14 1024.0 1023.9 0.0
27/12:30pm 23.2 19.3 6.9 35 8.4 NE 17 26 9 14 1024.7 1024.6 0.0
27/12:00pm 22.9 18.6 7.1 36 8.1 ENE 19 28 10 15 1025.1 1025.0 0.0
27/11:30am 23.0 18.6 7.5 37 8.0 NE 20 32 11 17 1025.3 1025.2 0.0
27/11:00am 21.9 17.0 7.0 38 7.6 NE 22 33 12 18 1025.7 1025.6 0.0
27/10:30am 21.4 17.0 7.3 40 7.2 NE 20 32 11 17 1026.0 1025.9 0.0
27/10:00am 20.7 16.8 7.3 42 6.8 NE 17 28 9 15 1026.1 1026.0 0.0
27/09:30am 19.6 16.1 7.4 45 6.2 ENE 15 22 8 12 1026.4 1026.3 0.0
27/09:00am 18.0 14.9 7.4 50 5.3 ENE 13 24 7 13 1026.6 1026.5 -
27/08:30am 16.7 13.2 7.1 53 4.8 ENE 15 22 8 12 1026.7 1026.6 -
27/08:00am 14.9 12.7 7.7 62 3.6 E 9 15 5 8 1026.4 1026.3 -
27/07:30am 13.0 10.8 7.7 70 2.6 E 9 17 5 9 1026.1 1026.0 -
27/07:00am 12.1 9.8 7.6 74 2.2 E 9 15 5 8 1025.9 1025.8 -
27/06:30am 12.6 9.6 7.7 72 2.4 E 13 20 7 11 1025.7 1025.6 -
27/06:00am 12.9 9.2 8.0 72 2.4 E 17 22 9 12 1025.6 1025.5 -
27/05:30am 13.1 9.5 8.2 72 2.4 E 17 24 9 13 1025.5 1025.4 -
27/05:00am 13.2 9.6 8.3 72 2.4 E 17 22 9 12 1025.4 1025.3 -
27/04:30am 13.0 10.1 8.3 73 2.3 E 13 20 7 11 1025.4 1025.3 -
27/04:00am 13.1 9.9 8.4 73 2.3 E 15 20 8 11 1025.3 1025.2 -
27/03:30am 13.5 10.3 8.6 72 2.5 E 15 20 8 11 1025.3 1025.2 -
27/03:00am 13.7 10.9 8.5 71 2.6 E 13 19 7 10 1025.5 1025.4 0.0
27/02:30am 14.0 10.5 8.6 70 2.7 E 17 24 9 13 1025.5 1025.4 -
27/02:00am 14.2 10.6 8.4 68 2.9 E 17 24 9 13 1025.7 1025.6 -
27/01:30am 14.1 10.8 7.9 66 3.1 E 15 22 8 12 1025.7 1025.6 -
27/01:00am 13.1 10.7 7.1 67 2.9 ESE 9 13 5 7 1026.0 1025.9 -
27/12:30am 12.9 10.3 6.0 63 3.3 ESE 9 13 5 7 1026.0 1025.9 -
27/12:00am 12.2 9.5 5.8 65 3.0 SE 9 11 5 6 1026.1 1026.0 -
 
Date/Time
WST
Temp
°C
App
Temp
°C
Dew
Point
Rel
Hum
%
Delta-T
°C
Wind Press
QNH
hPa
Press
MSL
hPa
Rain
since 9 am
mm
Dir
 
Spd
km/h
Gust
km/h
Spd
kts
Gust
kts
26/11:30pm 12.9 10.3 6.0 63 3.3 ESE 9 11 5 6 1026.0 1025.9 -
26/11:00pm 11.6 9.4 5.5 66 2.8 ESE 6 7 3 4 1026.0 1025.9 -
26/10:30pm 10.9 8.9 6.1 72 2.2 ESE 6 7 3 4 1026.1 1026.0 -
26/10:00pm 11.0 9.0 6.4 73 2.1 ESE 6 7 3 4 1026.0 1025.9 -
26/09:30pm 11.5 10.5 7.2 75 2.1 E 2 4 1 2 1025.9 1025.8 -
26/09:00pm 12.9 10.7 5.3 60 3.5 ESE 6 7 3 4 1025.7 1025.6 -
26/08:30pm 14.8 12.6 6.1 56 4.2 ESE 7 9 4 5 1025.4 1025.3 -
26/08:00pm 14.7 12.5 6.3 57 4.0 ESE 7 9 4 5 1025.3 1025.2 -
26/07:30pm 15.3 13.1 6.3 55 4.4 SE 7 9 4 5 1025.2 1025.1 -
26/07:00pm 16.3 14.1 6.2 51 4.9 SE 7 9 4 5 1025.1 1025.0 -
26/06:30pm 17.4 15.2 6.3 48 5.5 SE 7 9 4 5 1024.8 1024.7 -
26/06:00pm 17.8 15.7 6.7 48 5.5 SE 7 9 4 5 1024.6 1024.5 -
26/05:30pm 19.6 17.5 6.7 43 6.5 ESE 7 11 4 6 1024.4 1024.3 -
26/05:00pm 21.4 18.4 6.1 37 7.7 E 11 15 6 8 1024.2 1024.1 -
26/04:30pm 22.4 18.6 5.8 34 8.4 E 15 20 8 11 1024.2 1024.1 0.0
26/04:00pm 22.9 19.5 5.8 33 8.6 E 13 19 7 10 1024.1 1024.0 0.0
26/03:30pm 23.1 19.5 6.8 35 8.4 E 15 26 8 14 1024.2 1024.1 0.0
26/03:00pm 23.1 19.2 7.2 36 8.2 E 17 30 9 16 1024.3 1024.2 0.0
26/02:30pm 23.1 20.0 7.2 36 8.2 ENE 13 24 7 13 1024.3 1024.2 0.0
26/02:00pm 22.8 19.3 7.0 36 8.1 ENE 15 22 8 12 1024.5 1024.4 0.0
26/01:30pm 23.2 20.0 6.9 35 8.4 E 13 22 7 12 1024.8 1024.7 0.0
26/01:00pm 22.3 19.1 6.9 37 7.9 NE 13 22 7 12 1025.0 1024.9 0.0
26/12:30pm 22.0 18.1 7.0 38 7.7 ENE 17 28 9 15 1025.4 1025.3 0.0
26/12:00pm 22.2 19.2 7.6 39 7.5 NE 13 19 7 10 1026.0 1025.9 0.0
26/11:30am 21.4 18.3 9.0 45 6.6 ENE 15 20 8 11 1026.4 1026.3 0.0
26/11:00am 20.9 17.3 8.5 45 6.5 ENE 17 24 9 13 1026.8 1026.7 0.0
26/10:30am 19.5 16.4 8.8 50 5.6 E 15 20 8 11 1027.0 1026.9 0.0
26/10:00am 18.6 15.1 8.8 53 5.1 E 17 22 9 12 1027.3 1027.2 0.0
26/09:30am 17.0 13.5 8.7 58 4.3 E 17 24 9 13 1027.4 1027.3 0.0
26/09:00am 15.9 12.1 8.9 63 3.6 E 19 26 10 14 1027.4 1027.3 0.0
26/08:30am 14.7 10.9 8.9 68 2.9 E 19 26 10 14 1027.4 1027.3 0.0
26/08:00am 13.6 10.2 9.1 74 2.3 E 17 26 9 14 1027.3 1027.2 0.0
26/07:30am 12.4 9.3 8.9 79 1.8 E 15 28 8 15 1026.9 1026.8 0.0
26/07:00am 11.9 8.7 8.6 80 1.6 ENE 15 20 8 11 1026.8 1026.7 0.0
26/06:30am 11.7 9.2 8.4 80 1.6 E 11 17 6 9 1026.6 1026.5 0.0
26/06:00am 11.8 9.4 8.5 80 1.6 E 11 17 6 9 1026.6 1026.5 0.0
26/05:30am 11.3 9.1 8.0 80 1.6 E 9 15 5 8 1026.5 1026.4 0.0
26/05:00am 12.2 9.8 8.7 79 1.7 E 11 19 6 10 1026.3 1026.2 0.0
26/04:30am 11.2 9.6 8.6 84 1.3 ESE 7 15 4 8 1026.4 1026.3 0.0
26/04:00am 10.9 9.2 8.3 84 1.3 SE 7 11 4 6 1026.2 1026.1 0.0
26/03:30am 11.4 9.4 8.6 83 1.4 ESE 9 17 5 9 1026.3 1026.2 0.0
26/03:00am 10.5 8.7 8.1 85 1.2 SE 7 13 4 7 1026.5 1026.4 0.0
26/02:30am 10.3 8.4 7.7 84 1.2 SE 7 9 4 5 1026.5 1026.4 0.0
26/02:00am 10.9 9.1 8.0 82 1.4 SE 7 11 4 6 1026.5 1026.4 0.0
26/01:30am 11.2 9.4 7.9 80 1.6 ESE 7 11 4 6 1026.5 1026.4 0.0
26/01:00am 11.5 9.3 7.8 78 1.8 ESE 9 11 5 6 1026.5 1026.4 0.0
26/12:30am 11.7 9.3 7.2 74 2.2 ESE 9 13 5 7 1026.4 1026.3 0.0
26/12:00am 11.7 8.9 6.8 72 2.3 SE 11 15 6 8 1026.4 1026.3 0.0
 
Date/Time
WST
Temp
°C
App
Temp
°C
Dew
Point
Rel
Hum
%
Delta-T
°C
Wind Press
QNH
hPa
Press
MSL
hPa
Rain
since 9 am
mm
Dir
 
Spd
km/h
Gust
km/h
Spd
kts
Gust
kts
25/11:30pm 12.3 9.1 6.8 69 2.6 SE 13 19 7 10 1026.4 1026.3 0.0
25/11:00pm 12.8 9.2 6.6 66 2.9 SE 15 22 8 12 1026.5 1026.4 0.0
25/10:30pm 12.4 9.5 6.7 68 2.7 SE 11 15 6 8 1026.8 1026.7 0.0
25/10:00pm 12.1 9.7 6.8 70 2.5 SE 9 13 5 7 1026.9 1026.8 0.0
25/09:30pm 12.5 10.1 7.0 69 2.6 SE 9 13 5 7 1026.9 1026.8 0.0
25/09:00pm 12.4 10.0 6.9 69 2.6 SE 9 13 5 7 1026.8 1026.7 0.0
25/08:30pm 13.1 10.8 7.3 68 2.8 SE 9 13 5 7 1026.6 1026.5 0.0
25/08:00pm 13.0 10.6 7.2 68 2.8 SE 9 11 5 6 1026.4 1026.3 0.0
25/07:30pm 14.3 11.9 7.1 62 3.5 SE 9 15 5 8 1026.3 1026.2 0.0
25/07:00pm 14.9 12.1 7.0 59 3.8 SE 11 15 6 8 1026.1 1026.0 0.0
25/06:30pm 15.4 12.9 6.7 56 4.2 SE 9 13 5 7 1025.7 1025.6 0.0
25/06:00pm 16.6 14.1 6.4 51 5.0 SE 9 13 5 7 1025.4 1025.3 0.0
25/05:30pm 17.8 14.9 6.7 48 5.5 SE 11 17 6 9 1025.1 1025.0 0.0
25/05:00pm 19.3 15.3 6.8 44 6.2 ESE 17 22 9 12 1024.9 1024.8 0.0
25/04:30pm 20.2 16.3 6.9 42 6.7 ESE 17 24 9 13 1024.7 1024.6 0.0
25/04:00pm 20.7 17.2 7.0 41 6.9 ESE 15 22 8 12 1024.8 1024.7 0.0
25/03:30pm 20.9 17.0 7.2 41 7.0 ESE 17 24 9 13 1024.9 1024.8 0.0
25/03:00pm 20.9 16.8 6.4 39 7.3 E 17 24 9 13 1024.9 1024.8 0.0
25/02:30pm 20.8 16.4 6.7 40 7.1 E 19 28 10 15 1024.9 1024.8 0.0
25/02:00pm 20.9 18.2 7.5 42 6.9 ENE 11 17 6 9 1025.1 1025.0 0.0
25/01:30pm 20.5 17.1 7.5 43 6.7 E 15 22 8 12 1025.2 1025.1 0.0
25/01:00pm 20.2 17.6 7.6 44 6.4 ENE 11 17 6 9 1025.7 1025.6 0.0
25/12:30pm 20.0 16.5 7.4 44 6.4 E 15 26 8 14 1026.3 1026.2 0.0
25/12:00pm 19.6 16.3 8.0 47 5.9 ESE 15 22 8 12 1026.9 1026.8 0.0
25/11:30am 19.5 16.7 8.5 49 5.7 E 13 24 7 13 1027.4 1027.3 0.0
25/11:00am 18.7 15.5 8.4 51 5.3 E 15 20 8 11 1027.9 1027.8 0.0
25/10:30am 17.7 14.2 8.6 55 4.7 E 17 24 9 13 1028.3 1028.2 0.0
25/10:00am 17.0 13.5 8.9 59 4.1 ENE 17 26 9 14 1028.6 1028.5 0.0
25/09:30am 15.9 12.0 8.6 62 3.7 ENE 19 26 10 14 1028.9 1028.8 0.0
25/09:00am 15.2 11.8 9.1 67 3.1 E 17 26 9 14 1029.0 1028.9 0.0
25/08:30am 13.5 11.3 9.2 75 2.2 ESE 11 19 6 10 1029.0 1028.9 0.0
25/08:00am 11.9 9.5 8.6 80 1.6 ESE 11 15 6 8 1028.8 1028.7 0.0
25/07:30am 10.2 8.0 8.0 86 1.1 ESE 9 13 5 7 1028.4 1028.3 0.0
25/07:00am 9.7 7.5 7.8 88 0.9 SE 9 13 5 7 1028.1 1028.0 0.0
25/06:30am 8.8 6.4 7.1 89 0.8 SE 9 11 5 6 1027.9 1027.8 0.0
25/06:00am 9.3 7.5 7.1 86 1.0 SE 6 9 3 5 1027.8 1027.7 0.0
25/05:30am 10.0 8.2 7.8 86 1.1 SE 7 11 4 6 1027.6 1027.5 0.0
25/05:00am 10.4 8.2 7.8 84 1.2 SE 9 13 5 7 1027.5 1027.4 0.0
25/04:30am 11.1 8.6 8.0 81 1.5 SE 11 15 6 8 1027.3 1027.2 0.0
25/04:00am 11.0 9.1 7.7 80 1.6 SSE 7 9 4 5 1027.4 1027.3 0.0
25/03:30am 11.6 9.4 7.9 78 1.8 SE 9 13 5 7 1027.2 1027.1 0.0
25/03:00am 11.8 10.5 7.7 76 2.0 SE 4 6 2 3 1027.3 1027.2 0.0
25/02:30am 12.2 10.5 7.5 73 2.3 SE 6 7 3 4 1027.4 1027.3 0.0
25/02:00am 12.9 11.0 7.6 70 2.6 ESE 7 9 4 5 1027.4 1027.3 0.0
25/01:30am 13.2 11.3 7.6 69 2.7 ESE 7 11 4 6 1027.4 1027.3 0.0
25/01:00am 13.5 10.8 7.5 67 2.9 SE 11 17 6 9 1027.4 1027.3 0.0
25/12:30am 13.7 11.1 7.7 67 3.0 SE 11 15 6 8 1027.4 1027.3 0.0
25/12:00am 13.7 11.1 7.7 67 2.9 SE 11 17 6 9 1027.6 1027.5 0.0
 
Date/Time
WST
Temp
°C
App
Temp
°C
Dew
Point
Rel
Hum
%
Delta-T
°C
Wind Press
QNH
hPa
Press
MSL
hPa
Rain
since 9 am
mm
Dir
 
Spd
km/h
Gust
km/h
Spd
kts
Gust
kts
24/11:30pm 13.3 11.4 7.7 69 2.7 SE 7 11 4 6 1027.8 1027.7 0.0
24/11:00pm 13.6 11.3 7.6 67 2.9 SE 9 13 5 7 1027.9 1027.8 0.0
24/10:30pm 13.9 11.2 7.4 65 3.2 ESE 11 17 6 9 1028.2 1028.1 0.0
24/10:00pm 14.3 10.7 6.9 61 3.6 ESE 15 22 8 12 1028.2 1028.1 0.0
24/09:30pm 14.3 10.6 6.4 59 3.8 ESE 15 20 8 11 1028.1 1028.0 0.0
24/09:00pm 14.1 11.6 6.5 60 3.6 SE 9 15 5 8 1028.2 1028.1 0.0
24/08:30pm 14.1 11.6 6.5 60 3.7 SE 9 13 5 7 1028.0 1027.9 0.0
24/08:00pm 14.2 11.6 6.3 59 3.8 SE 9 13 5 7 1028.2 1028.1 0.0
24/07:30pm 14.8 11.9 6.4 57 4.1 ESE 11 15 6 8 1028.4 1028.3 0.0
24/07:00pm 15.0 11.7 6.3 56 4.2 ESE 13 20 7 11 1027.9 1027.8 0.0

Other Formats:

Comma delimited format used in spreadsheet applications
http://www.bom.gov.au/fwo/IDW60801/IDW60801.94604.axf

JavaScript Object Notation format (JSON) in row-major order
http://www.bom.gov.au/fwo/IDW60801/IDW60801.94604.json